sensor_id;sensor_type;location;lat;lon;timestamp;temperature;humidity
46926;DHT22;32667;48.248;-1.700;2023-03-14T00:02:05;12.30;73.20
46926;DHT22;32667;48.248;-1.700;2023-03-14T00:04:31;12.40;73.90
46926;DHT22;32667;48.248;-1.700;2023-03-14T00:06:57;12.30;73.30
46926;DHT22;32667;48.248;-1.700;2023-03-14T00:09:23;12.30;73.30
46926;DHT22;32667;48.248;-1.700;2023-03-14T00:11:48;12.40;73.40
46926;DHT22;32667;48.248;-1.700;2023-03-14T00:14:14;12.30;73.30
46926;DHT22;32667;48.248;-1.700;2023-03-14T00:16:45;12.40;73.30
46926;DHT22;32667;48.248;-1.700;2023-03-14T00:19:10;12.30;73.30
46926;DHT22;32667;48.248;-1.700;2023-03-14T00:21:36;12.30;73.40
46926;DHT22;32667;48.248;-1.700;2023-03-14T00:24:02;12.30;73.50
46926;DHT22;32667;48.248;-1.700;2023-03-14T00:26:31;12.20;73.40
46926;DHT22;32667;48.248;-1.700;2023-03-14T00:28:56;12.20;73.50
46926;DHT22;32667;48.248;-1.700;2023-03-14T00:31:22;12.20;73.60
46926;DHT22;32667;48.248;-1.700;2023-03-14T00:33:48;12.10;73.60
46926;DHT22;32667;48.248;-1.700;2023-03-14T00:36:17;12.10;73.70
46926;DHT22;32667;48.248;-1.700;2023-03-14T00:38:44;12.10;73.70
46926;DHT22;32667;48.248;-1.700;2023-03-14T00:41:16;12.10;73.80
46926;DHT22;32667;48.248;-1.700;2023-03-14T00:43:43;12.10;73.80
46926;DHT22;32667;48.248;-1.700;2023-03-14T00:46:09;12.10;73.80
46926;DHT22;32667;48.248;-1.700;2023-03-14T00:48:35;12.10;73.80
46926;DHT22;32667;48.248;-1.700;2023-03-14T00:51:02;12.10;73.80
46926;DHT22;32667;48.248;-1.700;2023-03-14T00:53:28;12.10;73.80
46926;DHT22;32667;48.248;-1.700;2023-03-14T00:55:54;12.10;73.70
46926;DHT22;32667;48.248;-1.700;2023-03-14T00:58:19;12.10;73.60
46926;DHT22;32667;48.248;-1.700;2023-03-14T01:00:48;12.10;73.60
46926;DHT22;32667;48.248;-1.700;2023-03-14T01:03:14;12.00;73.60
46926;DHT22;32667;48.248;-1.700;2023-03-14T01:05:40;12.00;73.70
46926;DHT22;32667;48.248;-1.700;2023-03-14T01:08:07;12.00;73.70
46926;DHT22;32667;48.248;-1.700;2023-03-14T01:10:34;11.90;73.70
46926;DHT22;32667;48.248;-1.700;2023-03-14T01:13:00;11.90;73.80
46926;DHT22;32667;48.248;-1.700;2023-03-14T01:15:25;11.80;73.80
46926;DHT22;32667;48.248;-1.700;2023-03-14T01:17:51;11.80;73.90
46926;DHT22;32667;48.248;-1.700;2023-03-14T01:20:18;11.70;74.00
46926;DHT22;32667;48.248;-1.700;2023-03-14T01:22:44;11.60;74.10
46926;DHT22;32667;48.248;-1.700;2023-03-14T01:25:13;11.50;74.20
46926;DHT22;32667;48.248;-1.700;2023-03-14T01:27:39;11.40;74.30
46926;DHT22;32667;48.248;-1.700;2023-03-14T01:30:05;11.30;74.40
46926;DHT22;32667;48.248;-1.700;2023-03-14T01:32:33;11.30;74.60
46926;DHT22;32667;48.248;-1.700;2023-03-14T01:34:59;11.20;75.20
46926;DHT22;32667;48.248;-1.700;2023-03-14T01:37:25;11.10;74.70
46926;DHT22;32667;48.248;-1.700;2023-03-14T01:39:51;11.00;74.70
46926;DHT22;32667;48.248;-1.700;2023-03-14T01:42:19;11.00;74.90
46926;DHT22;32667;48.248;-1.700;2023-03-14T01:44:56;10.90;74.90
46926;DHT22;32667;48.248;-1.700;2023-03-14T01:47:23;10.90;74.90
46926;DHT22;32667;48.248;-1.700;2023-03-14T01:50:03;10.80;74.90
46926;DHT22;32667;48.248;-1.700;2023-03-14T01:52:32;10.80;75.00
46926;DHT22;32667;48.248;-1.700;2023-03-14T01:55:12;10.80;74.90
46926;DHT22;32667;48.248;-1.700;2023-03-14T01:58:00;10.80;74.90
46926;DHT22;32667;48.248;-1.700;2023-03-14T02:00:26;10.70;74.80
46926;DHT22;32667;48.248;-1.700;2023-03-14T02:02:57;10.70;74.80
46926;DHT22;32667;48.248;-1.700;2023-03-14T02:05:29;10.70;74.80
46926;DHT22;32667;48.248;-1.700;2023-03-14T02:08:02;10.70;74.80
46926;DHT22;32667;48.248;-1.700;2023-03-14T02:10:37;10.70;74.80
46926;DHT22;32667;48.248;-1.700;2023-03-14T02:13:06;10.70;74.70
46926;DHT22;32667;48.248;-1.700;2023-03-14T02:15:32;10.70;74.70
46926;DHT22;32667;48.248;-1.700;2023-03-14T02:17:59;10.60;74.70
46926;DHT22;32667;48.248;-1.700;2023-03-14T02:20:27;10.60;74.70
46926;DHT22;32667;48.248;-1.700;2023-03-14T02:22:53;10.60;74.70
46926;DHT22;32667;48.248;-1.700;2023-03-14T02:28:06;10.60;74.80
46926;DHT22;32667;48.248;-1.700;2023-03-14T02:30:33;10.50;74.70
46926;DHT22;32667;48.248;-1.700;2023-03-14T02:33:05;10.50;74.70
46926;DHT22;32667;48.248;-1.700;2023-03-14T02:35:43;10.50;74.70
46926;DHT22;32667;48.248;-1.700;2023-03-14T02:38:27;10.60;74.70
46926;DHT22;32667;48.248;-1.700;2023-03-14T02:40:57;10.60;74.70
46926;DHT22;32667;48.248;-1.700;2023-03-14T02:43:23;10.60;74.60
46926;DHT22;32667;48.248;-1.700;2023-03-14T02:45:50;10.50;74.50
46926;DHT22;32667;48.248;-1.700;2023-03-14T02:48:22;10.60;74.60
46926;DHT22;32667;48.248;-1.700;2023-03-14T02:50:55;10.50;74.50
46926;DHT22;32667;48.248;-1.700;2023-03-14T02:53:25;10.50;74.60
46926;DHT22;32667;48.248;-1.700;2023-03-14T02:55:51;10.50;74.60
46926;DHT22;32667;48.248;-1.700;2023-03-14T02:58:17;10.40;74.60
46926;DHT22;32667;48.248;-1.700;2023-03-14T03:00:44;10.40;74.70
46926;DHT22;32667;48.248;-1.700;2023-03-14T03:03:10;10.30;74.80
46926;DHT22;32667;48.248;-1.700;2023-03-14T03:05:36;10.30;74.80
46926;DHT22;32667;48.248;-1.700;2023-03-14T03:08:02;10.20;74.80
46926;DHT22;32667;48.248;-1.700;2023-03-14T03:10:28;10.20;74.90
46926;DHT22;32667;48.248;-1.700;2023-03-14T03:12:54;10.20;74.90
46926;DHT22;32667;48.248;-1.700;2023-03-14T03:15:20;10.20;75.00
46926;DHT22;32667;48.248;-1.700;2023-03-14T03:17:46;10.20;75.00
46926;DHT22;32667;48.248;-1.700;2023-03-14T03:20:12;10.20;75.00
46926;DHT22;32667;48.248;-1.700;2023-03-14T03:22:38;10.10;74.80
46926;DHT22;32667;48.248;-1.700;2023-03-14T03:25:05;10.10;74.80
46926;DHT22;32667;48.248;-1.700;2023-03-14T03:27:33;10.10;74.90
46926;DHT22;32667;48.248;-1.700;2023-03-14T03:30:02;10.00;74.90
46926;DHT22;32667;48.248;-1.700;2023-03-14T03:32:28;9.90;75.00
46926;DHT22;32667;48.248;-1.700;2023-03-14T03:34:54;9.90;75.00
46926;DHT22;32667;48.248;-1.700;2023-03-14T03:37:20;9.90;75.10
46926;DHT22;32667;48.248;-1.700;2023-03-14T03:39:45;9.90;75.10
46926;DHT22;32667;48.248;-1.700;2023-03-14T03:42:13;9.80;75.10
46926;DHT22;32667;48.248;-1.700;2023-03-14T03:44:39;9.80;75.10
46926;DHT22;32667;48.248;-1.700;2023-03-14T03:47:05;9.80;75.10
46926;DHT22;32667;48.248;-1.700;2023-03-14T03:49:31;9.80;75.10
46926;DHT22;32667;48.248;-1.700;2023-03-14T03:51:57;9.80;75.00
46926;DHT22;32667;48.248;-1.700;2023-03-14T03:54:24;9.90;75.00
46926;DHT22;32667;48.248;-1.700;2023-03-14T03:56:50;9.90;74.90
46926;DHT22;32667;48.248;-1.700;2023-03-14T03:59:16;9.80;74.90
46926;DHT22;32667;48.248;-1.700;2023-03-14T04:01:44;9.90;75.00
46926;DHT22;32667;48.248;-1.700;2023-03-14T04:04:12;9.90;74.90
46926;DHT22;32667;48.248;-1.700;2023-03-14T04:06:38;9.80;74.80
46926;DHT22;32667;48.248;-1.700;2023-03-14T04:09:04;9.80;74.80
46926;DHT22;32667;48.248;-1.700;2023-03-14T04:11:30;9.80;74.80
46926;DHT22;32667;48.248;-1.700;2023-03-14T04:13:58;9.80;74.80
46926;DHT22;32667;48.248;-1.700;2023-03-14T04:16:25;9.80;74.80
46926;DHT22;32667;48.248;-1.700;2023-03-14T04:18:53;9.80;75.00
46926;DHT22;32667;48.248;-1.700;2023-03-14T04:21:19;9.70;74.80
46926;DHT22;32667;48.248;-1.700;2023-03-14T04:23:44;9.70;74.90
46926;DHT22;32667;48.248;-1.700;2023-03-14T04:26:10;9.60;74.90
46926;DHT22;32667;48.248;-1.700;2023-03-14T04:28:36;9.60;75.00
46926;DHT22;32667;48.248;-1.700;2023-03-14T04:31:09;9.60;75.10
46926;DHT22;32667;48.248;-1.700;2023-03-14T04:33:35;9.50;75.00
46926;DHT22;32667;48.248;-1.700;2023-03-14T04:36:03;9.50;75.00
46926;DHT22;32667;48.248;-1.700;2023-03-14T04:38:29;9.50;75.10
46926;DHT22;32667;48.248;-1.700;2023-03-14T04:40:55;9.50;75.10
46926;DHT22;32667;48.248;-1.700;2023-03-14T04:43:21;9.40;75.10
46926;DHT22;32667;48.248;-1.700;2023-03-14T04:45:47;9.40;75.00
46926;DHT22;32667;48.248;-1.700;2023-03-14T04:48:12;9.40;75.00
46926;DHT22;32667;48.248;-1.700;2023-03-14T04:50:39;9.30;75.00
46926;DHT22;32667;48.248;-1.700;2023-03-14T04:53:07;9.30;75.10
46926;DHT22;32667;48.248;-1.700;2023-03-14T04:55:33;9.30;75.20
46926;DHT22;32667;48.248;-1.700;2023-03-14T04:58:00;9.20;75.20
46926;DHT22;32667;48.248;-1.700;2023-03-14T05:00:25;9.20;75.30
46926;DHT22;32667;48.248;-1.700;2023-03-14T05:02:51;9.20;75.30
46926;DHT22;32667;48.248;-1.700;2023-03-14T05:05:24;9.10;75.20
46926;DHT22;32667;48.248;-1.700;2023-03-14T05:07:50;9.10;75.30
46926;DHT22;32667;48.248;-1.700;2023-03-14T05:10:16;9.00;75.30
46926;DHT22;32667;48.248;-1.700;2023-03-14T05:12:42;9.00;75.30
46926;DHT22;32667;48.248;-1.700;2023-03-14T05:15:08;9.10;75.60
46926;DHT22;32667;48.248;-1.700;2023-03-14T05:17:35;9.10;75.40
46926;DHT22;32667;48.248;-1.700;2023-03-14T05:20:01;9.00;75.30
46926;DHT22;32667;48.248;-1.700;2023-03-14T05:22:29;9.00;75.30
46926;DHT22;32667;48.248;-1.700;2023-03-14T05:24:58;9.00;75.40
46926;DHT22;32667;48.248;-1.700;2023-03-14T05:27:26;8.90;75.40
46926;DHT22;32667;48.248;-1.700;2023-03-14T05:29:52;8.90;75.50
46926;DHT22;32667;48.248;-1.700;2023-03-14T05:32:18;8.90;75.50
46926;DHT22;32667;48.248;-1.700;2023-03-14T05:34:43;8.90;75.50
46926;DHT22;32667;48.248;-1.700;2023-03-14T05:37:12;8.90;75.40
46926;DHT22;32667;48.248;-1.700;2023-03-14T05:39:38;8.90;75.40
46926;DHT22;32667;48.248;-1.700;2023-03-14T05:42:03;8.90;75.40
46926;DHT22;32667;48.248;-1.700;2023-03-14T05:44:29;8.90;75.40
46926;DHT22;32667;48.248;-1.700;2023-03-14T05:46:55;8.80;75.40
46926;DHT22;32667;48.248;-1.700;2023-03-14T05:49:21;8.80;75.40
46926;DHT22;32667;48.248;-1.700;2023-03-14T05:51:46;8.80;75.50
46926;DHT22;32667;48.248;-1.700;2023-03-14T05:54:12;8.70;75.50
46926;DHT22;32667;48.248;-1.700;2023-03-14T05:56:38;8.80;75.50
46926;DHT22;32667;48.248;-1.700;2023-03-14T05:59:04;8.70;75.40
46926;DHT22;32667;48.248;-1.700;2023-03-14T06:01:30;8.80;75.40
46926;DHT22;32667;48.248;-1.700;2023-03-14T06:03:55;8.70;75.40
46926;DHT22;32667;48.248;-1.700;2023-03-14T06:06:21;8.70;75.40
46926;DHT22;32667;48.248;-1.700;2023-03-14T06:08:52;8.70;75.40
46926;DHT22;32667;48.248;-1.700;2023-03-14T06:11:17;8.70;75.40
46926;DHT22;32667;48.248;-1.700;2023-03-14T06:13:43;8.70;75.40
46926;DHT22;32667;48.248;-1.700;2023-03-14T06:16:11;8.60;75.40
46926;DHT22;32667;48.248;-1.700;2023-03-14T06:18:39;8.70;75.40
46926;DHT22;32667;48.248;-1.700;2023-03-14T06:21:05;8.60;75.40
46926;DHT22;32667;48.248;-1.700;2023-03-14T06:23:31;8.60;75.40
46926;DHT22;32667;48.248;-1.700;2023-03-14T06:25:57;8.60;75.50
46926;DHT22;32667;48.248;-1.700;2023-03-14T06:28:23;8.60;75.50
46926;DHT22;32667;48.248;-1.700;2023-03-14T06:30:49;8.60;75.50
46926;DHT22;32667;48.248;-1.700;2023-03-14T06:33:15;8.50;75.50
46926;DHT22;32667;48.248;-1.700;2023-03-14T06:35:40;8.50;75.50
46926;DHT22;32667;48.248;-1.700;2023-03-14T06:38:06;8.50;75.50
46926;DHT22;32667;48.248;-1.700;2023-03-14T06:40:32;8.50;75.50
46926;DHT22;32667;48.248;-1.700;2023-03-14T06:42:58;8.50;75.40
46926;DHT22;32667;48.248;-1.700;2023-03-14T06:45:27;8.50;75.50
46926;DHT22;32667;48.248;-1.700;2023-03-14T06:47:52;8.50;75.40
46926;DHT22;32667;48.248;-1.700;2023-03-14T06:50:18;8.50;75.40
46926;DHT22;32667;48.248;-1.700;2023-03-14T06:52:44;8.50;75.40
46926;DHT22;32667;48.248;-1.700;2023-03-14T06:55:15;8.50;75.40
46926;DHT22;32667;48.248;-1.700;2023-03-14T06:57:41;8.50;75.30
46926;DHT22;32667;48.248;-1.700;2023-03-14T07:00:10;8.50;75.40
46926;DHT22;32667;48.248;-1.700;2023-03-14T07:02:36;8.40;75.30
46926;DHT22;32667;48.248;-1.700;2023-03-14T07:05:03;8.50;75.30
46926;DHT22;32667;48.248;-1.700;2023-03-14T07:07:29;8.50;75.30
46926;DHT22;32667;48.248;-1.700;2023-03-14T07:09:57;8.50;75.20
46926;DHT22;32667;48.248;-1.700;2023-03-14T07:12:23;8.60;75.20
46926;DHT22;32667;48.248;-1.700;2023-03-14T07:14:48;8.60;75.10
46926;DHT22;32667;48.248;-1.700;2023-03-14T07:17:17;8.60;75.60
46926;DHT22;32667;48.248;-1.700;2023-03-14T07:19:43;8.60;75.00
46926;DHT22;32667;48.248;-1.700;2023-03-14T07:22:09;8.60;75.00
46926;DHT22;32667;48.248;-1.700;2023-03-14T07:24:35;8.50;75.00
46926;DHT22;32667;48.248;-1.700;2023-03-14T07:27:00;8.60;75.00
46926;DHT22;32667;48.248;-1.700;2023-03-14T07:29:26;8.60;75.00
46926;DHT22;32667;48.248;-1.700;2023-03-14T07:31:52;8.50;74.90
46926;DHT22;32667;48.248;-1.700;2023-03-14T07:34:20;8.50;75.00
46926;DHT22;32667;48.248;-1.700;2023-03-14T07:36:46;8.50;75.10
46926;DHT22;32667;48.248;-1.700;2023-03-14T07:39:14;8.50;75.20
46926;DHT22;32667;48.248;-1.700;2023-03-14T07:41:39;8.50;75.20
46926;DHT22;32667;48.248;-1.700;2023-03-14T07:44:05;8.50;75.20
46926;DHT22;32667;48.248;-1.700;2023-03-14T07:46:31;8.50;75.20
46926;DHT22;32667;48.248;-1.700;2023-03-14T07:48:56;8.50;75.10
46926;DHT22;32667;48.248;-1.700;2023-03-14T07:51:22;8.50;75.70
46926;DHT22;32667;48.248;-1.700;2023-03-14T07:53:48;8.60;75.00
46926;DHT22;32667;48.248;-1.700;2023-03-14T07:56:14;8.60;74.90
46926;DHT22;32667;48.248;-1.700;2023-03-14T07:58:40;8.60;74.80
46926;DHT22;32667;48.248;-1.700;2023-03-14T08:01:05;8.60;74.80
46926;DHT22;32667;48.248;-1.700;2023-03-14T08:03:31;8.60;74.80
46926;DHT22;32667;48.248;-1.700;2023-03-14T08:05:57;8.60;74.90
46926;DHT22;32667;48.248;-1.700;2023-03-14T08:08:22;8.70;74.90
46926;DHT22;32667;48.248;-1.700;2023-03-14T08:10:48;8.70;74.80
46926;DHT22;32667;48.248;-1.700;2023-03-14T08:13:14;8.80;74.70
46926;DHT22;32667;48.248;-1.700;2023-03-14T08:15:40;8.80;74.60
46926;DHT22;32667;48.248;-1.700;2023-03-14T08:18:06;8.90;74.50
46926;DHT22;32667;48.248;-1.700;2023-03-14T08:20:35;8.90;74.50
46926;DHT22;32667;48.248;-1.700;2023-03-14T08:23:04;8.80;74.60
46926;DHT22;32667;48.248;-1.700;2023-03-14T08:25:29;8.90;74.60
46926;DHT22;32667;48.248;-1.700;2023-03-14T08:27:56;8.90;74.60
46926;DHT22;32667;48.248;-1.700;2023-03-14T08:30:22;9.10;74.50
46926;DHT22;32667;48.248;-1.700;2023-03-14T08:32:48;9.20;74.90
46926;DHT22;32667;48.248;-1.700;2023-03-14T08:35:14;9.40;74.00
46926;DHT22;32667;48.248;-1.700;2023-03-14T08:37:41;9.40;73.80
46926;DHT22;32667;48.248;-1.700;2023-03-14T08:40:08;9.50;73.80
46926;DHT22;32667;48.248;-1.700;2023-03-14T08:42:36;9.70;73.60
46926;DHT22;32667;48.248;-1.700;2023-03-14T08:45:02;9.80;73.40
46926;DHT22;32667;48.248;-1.700;2023-03-14T08:47:28;9.90;73.30
46926;DHT22;32667;48.248;-1.700;2023-03-14T08:49:54;9.90;73.20
46926;DHT22;32667;48.248;-1.700;2023-03-14T08:52:20;10.00;73.20
46926;DHT22;32667;48.248;-1.700;2023-03-14T08:54:47;10.00;73.30
46926;DHT22;32667;48.248;-1.700;2023-03-14T08:57:13;10.00;73.40
46926;DHT22;32667;48.248;-1.700;2023-03-14T08:59:41;10.00;73.40
46926;DHT22;32667;48.248;-1.700;2023-03-14T09:02:10;10.10;73.30
46926;DHT22;32667;48.248;-1.700;2023-03-14T09:04:39;10.10;73.20
46926;DHT22;32667;48.248;-1.700;2023-03-14T09:07:04;10.10;73.20
46926;DHT22;32667;48.248;-1.700;2023-03-14T09:09:32;10.20;73.30
46926;DHT22;32667;48.248;-1.700;2023-03-14T09:12:00;10.20;73.20
46926;DHT22;32667;48.248;-1.700;2023-03-14T09:14:26;10.30;73.20
46926;DHT22;32667;48.248;-1.700;2023-03-14T09:16:52;10.40;73.20
46926;DHT22;32667;48.248;-1.700;2023-03-14T09:19:18;10.40;73.10
46926;DHT22;32667;48.248;-1.700;2023-03-14T09:21:43;10.40;73.00
46926;DHT22;32667;48.248;-1.700;2023-03-14T09:24:09;10.50;73.00
46926;DHT22;32667;48.248;-1.700;2023-03-14T09:26:35;10.50;73.00
46926;DHT22;32667;48.248;-1.700;2023-03-14T09:29:01;10.50;73.00
46926;DHT22;32667;48.248;-1.700;2023-03-14T09:31:26;10.60;73.10
46926;DHT22;32667;48.248;-1.700;2023-03-14T09:33:53;10.60;73.00
46926;DHT22;32667;48.248;-1.700;2023-03-14T09:36:18;10.60;73.00
46926;DHT22;32667;48.248;-1.700;2023-03-14T09:38:44;10.60;73.00
46926;DHT22;32667;48.248;-1.700;2023-03-14T09:41:55;10.70;73.00
46926;DHT22;32667;48.248;-1.700;2023-03-14T09:46:54;10.70;72.90
46926;DHT22;32667;48.248;-1.700;2023-03-14T09:49:33;10.70;72.90
46926;DHT22;32667;48.248;-1.700;2023-03-14T09:52:02;10.70;72.90
46926;DHT22;32667;48.248;-1.700;2023-03-14T09:54:37;10.80;72.90
46926;DHT22;32667;48.248;-1.700;2023-03-14T09:57:05;10.80;72.90
46926;DHT22;32667;48.248;-1.700;2023-03-14T09:59:34;10.90;72.90
46926;DHT22;32667;48.248;-1.700;2023-03-14T10:02:04;10.90;72.80
46926;DHT22;32667;48.248;-1.700;2023-03-14T10:04:37;11.00;72.80
46926;DHT22;32667;48.248;-1.700;2023-03-14T10:07:09;11.00;72.60
46926;DHT22;32667;48.248;-1.700;2023-03-14T10:09:38;11.10;72.50
46926;DHT22;32667;48.248;-1.700;2023-03-14T10:12:04;11.20;72.40
46926;DHT22;32667;48.248;-1.700;2023-03-14T10:14:38;11.20;72.30
46926;DHT22;32667;48.248;-1.700;2023-03-14T10:17:13;11.20;72.30
46926;DHT22;32667;48.248;-1.700;2023-03-14T10:19:59;11.20;72.30
46926;DHT22;32667;48.248;-1.700;2023-03-14T10:22:31;11.30;72.30
46926;DHT22;32667;48.248;-1.700;2023-03-14T10:25:06;11.30;72.30
46926;DHT22;32667;48.248;-1.700;2023-03-14T10:27:44;11.30;72.30
46926;DHT22;32667;48.248;-1.700;2023-03-14T10:30:34;11.40;72.30
46926;DHT22;32667;48.248;-1.700;2023-03-14T10:33:30;11.40;72.20
46926;DHT22;32667;48.248;-1.700;2023-03-14T10:36:06;11.40;72.20
46926;DHT22;32667;48.248;-1.700;2023-03-14T10:38:41;11.40;72.20
46926;DHT22;32667;48.248;-1.700;2023-03-14T10:43:43;11.40;72.20
46926;DHT22;32667;48.248;-1.700;2023-03-14T10:46:16;11.40;72.30
46926;DHT22;32667;48.248;-1.700;2023-03-14T10:48:43;11.50;72.40
46926;DHT22;32667;48.248;-1.700;2023-03-14T10:53:48;11.50;72.30
46926;DHT22;32667;48.248;-1.700;2023-03-14T10:56:22;11.50;72.30
46926;DHT22;32667;48.248;-1.700;2023-03-14T10:58:50;11.60;72.20
46926;DHT22;32667;48.248;-1.700;2023-03-14T11:03:56;11.80;72.00
46926;DHT22;32667;48.248;-1.700;2023-03-14T11:06:36;11.80;71.80
46926;DHT22;32667;48.248;-1.700;2023-03-14T11:09:36;11.90;71.80
46926;DHT22;32667;48.248;-1.700;2023-03-14T11:15:00;12.10;71.60
46926;DHT22;32667;48.248;-1.700;2023-03-14T11:17:38;12.10;71.50
46926;DHT22;32667;48.248;-1.700;2023-03-14T11:20:28;12.30;71.50
46926;DHT22;32667;48.248;-1.700;2023-03-14T11:28:35;12.50;71.10
46926;DHT22;32667;48.248;-1.700;2023-03-14T11:31:20;12.60;71.10
46926;DHT22;32667;48.248;-1.700;2023-03-14T11:36:50;12.70;71.10
46926;DHT22;32667;48.248;-1.700;2023-03-14T11:39:18;12.80;71.00
46926;DHT22;32667;48.248;-1.700;2023-03-14T11:41:52;12.90;70.80
46926;DHT22;32667;48.248;-1.700;2023-03-14T11:44:19;13.00;70.70
46926;DHT22;32667;48.248;-1.700;2023-03-14T11:50:16;13.20;70.60
46926;DHT22;32667;48.248;-1.700;2023-03-14T11:55:28;13.40;70.40
46926;DHT22;32667;48.248;-1.700;2023-03-14T12:01:03;13.40;70.50
46926;DHT22;32667;48.248;-1.700;2023-03-14T12:03:57;13.40;70.50
46926;DHT22;32667;48.248;-1.700;2023-03-14T12:09:03;13.60;70.60
46926;DHT22;32667;48.248;-1.700;2023-03-14T12:14:32;13.70;70.30
46926;DHT22;32667;48.248;-1.700;2023-03-14T12:19:33;13.60;70.50
46926;DHT22;32667;48.248;-1.700;2023-03-14T12:22:21;13.60;70.60
46926;DHT22;32667;48.248;-1.700;2023-03-14T12:24:53;13.60;70.70
46926;DHT22;32667;48.248;-1.700;2023-03-14T12:27:46;13.70;70.70
46926;DHT22;32667;48.248;-1.700;2023-03-14T12:30:23;13.60;70.70
46926;DHT22;32667;48.248;-1.700;2023-03-14T12:35:48;13.20;71.10
46926;DHT22;32667;48.248;-1.700;2023-03-14T12:38:16;13.10;71.50
46926;DHT22;32667;48.248;-1.700;2023-03-14T12:43:38;13.00;71.90
46926;DHT22;32667;48.248;-1.700;2023-03-14T12:48:47;13.30;71.30
46926;DHT22;32667;48.248;-1.700;2023-03-14T12:51:18;13.50;71.60
46926;DHT22;32667;48.248;-1.700;2023-03-14T13:01:33;13.60;70.30
46926;DHT22;32667;48.248;-1.700;2023-03-14T13:04:08;13.30;70.70
46926;DHT22;32667;48.248;-1.700;2023-03-14T13:06:53;13.10;71.30
46926;DHT22;32667;48.248;-1.700;2023-03-14T13:12:14;13.10;71.90
46926;DHT22;32667;48.248;-1.700;2023-03-14T13:14:45;13.20;71.50
46926;DHT22;32667;48.248;-1.700;2023-03-14T13:17:13;13.20;71.30
46926;DHT22;32667;48.248;-1.700;2023-03-14T13:19:39;13.10;71.30
46926;DHT22;32667;48.248;-1.700;2023-03-14T13:22:24;13.10;71.50
46926;DHT22;32667;48.248;-1.700;2023-03-14T13:25:05;13.20;71.60
46926;DHT22;32667;48.248;-1.700;2023-03-14T13:27:33;13.30;71.40
46926;DHT22;32667;48.248;-1.700;2023-03-14T13:30:48;13.30;71.20
46926;DHT22;32667;48.248;-1.700;2023-03-14T13:32:55;13.30;71.10
46926;DHT22;32667;48.248;-1.700;2023-03-14T13:35:24;13.30;71.20
46926;DHT22;32667;48.248;-1.700;2023-03-14T13:38:01;13.30;71.20
46926;DHT22;32667;48.248;-1.700;2023-03-14T13:40:34;13.40;71.30
46926;DHT22;32667;48.248;-1.700;2023-03-14T13:48:29;13.50;71.10
46926;DHT22;32667;48.248;-1.700;2023-03-14T13:51:02;13.50;71.00
46926;DHT22;32667;48.248;-1.700;2023-03-14T13:53:29;13.70;70.90
46926;DHT22;32667;48.248;-1.700;2023-03-14T13:55:55;13.80;70.70
46926;DHT22;32667;48.248;-1.700;2023-03-14T13:58:24;13.90;70.50
46926;DHT22;32667;48.248;-1.700;2023-03-14T14:01:03;14.00;70.40
46926;DHT22;32667;48.248;-1.700;2023-03-14T14:03:32;14.00;70.30
46926;DHT22;32667;48.248;-1.700;2023-03-14T14:05:59;14.00;70.40
46926;DHT22;32667;48.248;-1.700;2023-03-14T14:08:27;14.00;70.40
46926;DHT22;32667;48.248;-1.700;2023-03-14T14:10:57;14.10;70.50
46926;DHT22;32667;48.248;-1.700;2023-03-14T14:13:24;14.20;70.20
46926;DHT22;32667;48.248;-1.700;2023-03-14T14:15:53;14.30;70.10
46926;DHT22;32667;48.248;-1.700;2023-03-14T14:18:23;14.30;70.00
46926;DHT22;32667;48.248;-1.700;2023-03-14T14:20:52;14.20;70.20
46926;DHT22;32667;48.248;-1.700;2023-03-14T14:23:21;14.20;70.40
46926;DHT22;32667;48.248;-1.700;2023-03-14T14:25:51;14.20;70.60
46926;DHT22;32667;48.248;-1.700;2023-03-14T14:30:59;14.30;70.40
46926;DHT22;32667;48.248;-1.700;2023-03-14T14:33:25;14.40;70.30
46926;DHT22;32667;48.248;-1.700;2023-03-14T14:35:59;14.60;70.00
46926;DHT22;32667;48.248;-1.700;2023-03-14T14:38:26;14.70;69.80
46926;DHT22;32667;48.248;-1.700;2023-03-14T14:40:55;14.80;69.80
46926;DHT22;32667;48.248;-1.700;2023-03-14T14:43:27;14.90;69.70
46926;DHT22;32667;48.248;-1.700;2023-03-14T14:45:58;14.90;69.50
46926;DHT22;32667;48.248;-1.700;2023-03-14T14:48:26;14.80;69.80
46926;DHT22;32667;48.248;-1.700;2023-03-14T14:51:03;14.70;70.00
46926;DHT22;32667;48.248;-1.700;2023-03-14T14:53:41;14.60;70.20
46926;DHT22;32667;48.248;-1.700;2023-03-14T14:56:18;14.50;70.30
46926;DHT22;32667;48.248;-1.700;2023-03-14T14:58:48;14.50;70.30
46926;DHT22;32667;48.248;-1.700;2023-03-14T15:01:22;14.60;70.30
46926;DHT22;32667;48.248;-1.700;2023-03-14T15:03:51;14.60;70.30
46926;DHT22;32667;48.248;-1.700;2023-03-14T15:06:18;14.50;70.20
46926;DHT22;32667;48.248;-1.700;2023-03-14T15:08:45;14.50;70.30
46926;DHT22;32667;48.248;-1.700;2023-03-14T15:11:22;14.50;70.40
46926;DHT22;32667;48.248;-1.700;2023-03-14T15:13:52;14.50;70.40
46926;DHT22;32667;48.248;-1.700;2023-03-14T15:16:20;14.50;70.40
46926;DHT22;32667;48.248;-1.700;2023-03-14T15:18:52;14.50;70.40
46926;DHT22;32667;48.248;-1.700;2023-03-14T15:21:18;14.40;70.50
46926;DHT22;32667;48.248;-1.700;2023-03-14T15:23:44;14.50;70.50
46926;DHT22;32667;48.248;-1.700;2023-03-14T15:26:21;14.50;70.30
46926;DHT22;32667;48.248;-1.700;2023-03-14T15:28:47;14.50;70.30
46926;DHT22;32667;48.248;-1.700;2023-03-14T15:31:14;14.50;70.30
46926;DHT22;32667;48.248;-1.700;2023-03-14T15:33:40;14.50;70.30
46926;DHT22;32667;48.248;-1.700;2023-03-14T15:38:47;14.40;70.40
46926;DHT22;32667;48.248;-1.700;2023-03-14T15:41:13;14.40;70.50
46926;DHT22;32667;48.248;-1.700;2023-03-14T15:43:41;14.30;70.60
46926;DHT22;32667;48.248;-1.700;2023-03-14T15:46:11;14.30;70.70
46926;DHT22;32667;48.248;-1.700;2023-03-14T15:48:40;14.20;70.80
46926;DHT22;32667;48.248;-1.700;2023-03-14T15:51:06;14.20;70.80
46926;DHT22;32667;48.248;-1.700;2023-03-14T15:53:32;14.20;70.80
46926;DHT22;32667;48.248;-1.700;2023-03-14T15:55:58;14.30;70.80
46926;DHT22;32667;48.248;-1.700;2023-03-14T15:58:26;14.30;70.70
46926;DHT22;32667;48.248;-1.700;2023-03-14T16:00:52;14.30;70.50
46926;DHT22;32667;48.248;-1.700;2023-03-14T16:03:18;14.30;70.50
46926;DHT22;32667;48.248;-1.700;2023-03-14T16:05:46;14.20;70.60
46926;DHT22;32667;48.248;-1.700;2023-03-14T16:08:19;13.90;70.80
46926;DHT22;32667;48.248;-1.700;2023-03-14T16:10:45;13.80;71.30
46926;DHT22;32667;48.248;-1.700;2023-03-14T16:13:12;13.70;71.40
46926;DHT22;32667;48.248;-1.700;2023-03-14T16:15:41;13.70;71.50
46926;DHT22;32667;48.248;-1.700;2023-03-14T16:18:08;13.70;71.40
46926;DHT22;32667;48.248;-1.700;2023-03-14T16:20:34;13.60;71.50
46926;DHT22;32667;48.248;-1.700;2023-03-14T16:23:00;13.60;71.50
46926;DHT22;32667;48.248;-1.700;2023-03-14T16:25:29;13.50;71.50
46926;DHT22;32667;48.248;-1.700;2023-03-14T16:27:55;13.40;71.50
46926;DHT22;32667;48.248;-1.700;2023-03-14T16:30:21;13.40;71.70
46926;DHT22;32667;48.248;-1.700;2023-03-14T16:32:47;13.20;71.70
46926;DHT22;32667;48.248;-1.700;2023-03-14T16:35:13;13.30;71.90
46926;DHT22;32667;48.248;-1.700;2023-03-14T16:37:39;13.20;71.80
46926;DHT22;32667;48.248;-1.700;2023-03-14T16:40:05;13.20;71.70
46926;DHT22;32667;48.248;-1.700;2023-03-14T16:42:33;13.20;71.60